Time;durP1;ratioP1;P1;durP2;ratioP2;P2;SDS_P1;SDS_P2;PMS_P1;PMS_P2;Temp;Humidity;BMP_temperature;BMP_pressure;BME280_temperature;BME280_humidity;BME280_pressure;Samples;Min_cycle;Max_cycle;Signal;HPM_P1;HPM_P2
2023/08/21 00:00:14;;;;;;;5.45;5.03;;;26.90;63.60;;;;;;5000357;28;20197;-84
2023/08/21 00:02:41;;;;;;;5.55;4.97;;;26.90;63.70;;;;;;5016408;28;20263;-84
2023/08/21 00:05:10;;;;;;;5.28;4.82;;;26.80;63.60;;;;;;4997986;28;20250;-84
2023/08/21 00:07:37;;;;;;;5.70;5.20;;;26.80;63.70;;;;;;4998225;28;20295;-84
2023/08/21 00:10:06;;;;;;;5.60;5.10;;;26.80;63.60;;;;;;4997739;28;20286;-84
2023/08/21 00:12:33;;;;;;;5.63;5.13;;;26.80;63.70;;;;;;5015631;28;20180;-84
2023/08/21 00:15:04;;;;;;;5.53;5.03;;;26.80;63.70;;;;;;4998554;28;20229;-84
2023/08/21 00:17:31;;;;;;;5.55;5.07;;;26.80;63.70;;;;;;4966030;28;20234;-84
2023/08/21 00:19:58;;;;;;;5.53;5.03;;;26.80;63.70;;;;;;4998098;28;20196;-84
2023/08/21 00:22:26;;;;;;;5.38;4.95;;;26.80;63.80;;;;;;5015372;28;20196;-84
2023/08/21 00:24:54;;;;;;;5.32;4.82;;;26.80;63.80;;;;;;4997998;28;20573;-84
2023/08/21 00:27:21;;;;;;;5.35;4.95;;;26.80;63.80;;;;;;4998797;28;20207;-84
2023/08/21 00:29:49;;;;;;;5.55;5.05;;;26.80;64.00;;;;;;4981503;28;20219;-83
2023/08/21 00:32:16;;;;;;;5.22;4.82;;;26.80;64.00;;;;;;4997582;28;20258;-83
2023/08/21 00:34:43;;;;;;;5.72;5.22;;;26.80;64.00;;;;;;4997445;28;20645;-83
2023/08/21 00:37:11;;;;;;;5.65;5.25;;;26.80;64.00;;;;;;5014768;28;20200;-83
2023/08/21 00:39:39;;;;;;;5.20;4.80;;;26.80;64.00;;;;;;4997925;28;20188;-83
2023/08/21 00:42:07;;;;;;;5.20;4.80;;;26.70;63.90;;;;;;4981540;28;20580;-84
2023/08/21 00:44:34;;;;;;;6.43;5.00;;;26.80;64.10;;;;;;5014664;28;20650;-84
2023/08/21 00:47:00;;;;;;;5.20;4.72;;;26.80;64.10;;;;;;4997557;28;20180;-84
2023/08/21 00:49:28;;;;;;;5.03;4.63;;;26.70;64.00;;;;;;4997062;28;20227;-84
2023/08/21 00:51:55;;;;;;;5.65;5.25;;;26.70;64.00;;;;;;4996764;28;20266;-84
2023/08/21 00:54:22;;;;;;;4.90;4.55;;;26.70;64.00;;;;;;5000918;28;20192;-84
2023/08/21 00:56:52;;;;;;;5.75;5.00;;;26.70;64.10;;;;;;5001432;28;20219;-84
2023/08/21 00:59:20;;;;;;;5.05;4.65;;;26.70;64.10;;;;;;5000760;28;20196;-84
2023/08/21 01:01:47;;;;;;;5.47;4.63;;;26.70;64.10;;;;;;5000663;28;20207;-84
2023/08/21 01:04:14;;;;;;;5.45;5.05;;;26.70;64.10;;;;;;5001079;28;20206;-84
2023/08/21 01:06:41;;;;;;;5.30;4.90;;;26.60;64.10;;;;;;5001100;28;20266;-84
2023/08/21 01:09:13;;;;;;;5.10;4.70;;;26.70;64.10;;;;;;5001740;28;20287;-84
2023/08/21 01:11:44;;;;;;;4.60;4.30;;;26.60;64.10;;;;;;5001040;28;20216;-84
2023/08/21 01:14:15;;;;;;;5.57;5.07;;;26.60;64.10;;;;;;4985277;28;20199;-84
2023/08/21 01:16:42;;;;;;;5.40;5.00;;;26.60;64.10;;;;;;5000894;28;20658;-84
2023/08/21 01:19:11;;;;;;;5.70;5.22;;;26.70;64.30;;;;;;5000544;28;20188;-84
2023/08/21 01:21:39;;;;;;;5.53;5.03;;;26.60;64.10;;;;;;5000612;28;20311;-84
2023/08/21 01:24:07;;;;;;;5.00;4.55;;;26.60;64.20;;;;;;5000404;28;20203;-84
2023/08/21 01:26:34;;;;;;;5.13;4.72;;;26.60;64.20;;;;;;5000231;28;20210;-84
2023/08/21 01:29:01;;;;;;;5.15;4.75;;;26.60;64.20;;;;;;4999886;28;20682;-84
2023/08/21 01:31:31;;;;;;;5.60;5.10;;;26.60;64.30;;;;;;5000147;28;20227;-84
2023/08/21 01:34:00;;;;;;;5.20;4.80;;;26.60;64.40;;;;;;5000005;28;20200;-84
2023/08/21 01:36:27;;;;;;;5.28;4.88;;;26.60;64.40;;;;;;4999923;28;20195;-84
2023/08/21 01:38:54;;;;;;;5.47;4.93;;;26.60;64.40;;;;;;4983996;28;20199;-84
2023/08/21 01:41:24;;;;;;;5.43;4.93;;;26.60;64.40;;;;;;4999403;28;20224;-84
2023/08/21 01:43:51;;;;;;;5.00;4.60;;;26.50;64.40;;;;;;4999739;28;20204;-84
2023/08/21 01:46:18;;;;;;;5.00;4.60;;;26.50;64.40;;;;;;4999411;28;20203;-84
2023/08/21 01:48:46;;;;;;;4.95;4.55;;;26.50;64.50;;;;;;4999683;28;20206;-84
2023/08/21 01:51:13;;;;;;;5.70;5.07;;;26.50;64.50;;;;;;4999228;28;20216;-84
2023/08/21 01:53:41;;;;;;;5.15;4.50;;;26.50;64.50;;;;;;4998849;28;20208;-84
2023/08/21 01:56:09;;;;;;;5.28;4.88;;;26.50;64.50;;;;;;4983513;28;20219;-84
2023/08/21 01:58:37;;;;;;;4.85;4.45;;;26.50;64.60;;;;;;4999452;28;20207;-84
2023/08/21 02:01:04;;;;;;;5.22;4.82;;;26.50;64.60;;;;;;4999455;28;20213;-84
2023/08/21 02:03:32;;;;;;;5.20;4.80;;;26.40;64.50;;;;;;4998868;28;20211;-84
2023/08/21 02:06:00;;;;;;;5.40;5.00;;;26.50;64.60;;;;;;4999181;28;20567;-84
2023/08/21 02:08:28;;;;;;;4.85;4.40;;;26.50;64.60;;;;;;4999502;28;20200;-84
2023/08/21 02:10:56;;;;;;;5.60;5.10;;;26.50;64.60;;;;;;4999086;28;20310;-84
2023/08/21 02:13:23;;;;;;;4.80;4.40;;;26.40;64.50;;;;;;4999033;28;20196;-84
2023/08/21 02:15:52;;;;;;;4.97;4.55;;;26.40;64.50;;;;;;4983414;28;20188;-84
2023/08/21 02:18:20;;;;;;;5.15;4.75;;;26.40;64.50;;;;;;4999099;28;20196;-84
2023/08/21 02:20:48;;;;;;;5.30;4.80;;;26.40;64.50;;;;;;4999015;28;20243;-84
2023/08/21 02:23:15;;;;;;;5.40;4.63;;;26.50;64.60;;;;;;4998681;28;20292;-84
2023/08/21 02:25:42;;;;;;;5.03;4.70;;;26.40;64.60;;;;;;4998653;28;20697;-84
2023/08/21 02:28:11;;;;;;;5.30;4.82;;;26.40;64.70;;;;;;4998686;28;20196;-84
2023/08/21 02:30:41;;;;;;;5.40;5.00;;;26.40;64.80;;;;;;4998766;28;20227;-84
2023/08/21 02:33:10;;;;;;;5.10;4.70;;;26.40;64.90;;;;;;4998888;28;20188;-84
2023/08/21 02:35:39;;;;;;;5.07;4.68;;;26.30;64.70;;;;;;4999738;28;20270;-84
2023/08/21 02:38:07;;;;;;;5.20;4.80;;;26.30;64.90;;;;;;4999257;28;20607;-84
2023/08/21 02:40:36;;;;;;;5.55;5.05;;;26.30;64.90;;;;;;4998910;28;20304;-84
2023/08/21 02:43:04;;;;;;;5.05;4.65;;;26.30;64.90;;;;;;4999321;28;20570;-84
2023/08/21 02:45:31;;;;;;;5.00;4.60;;;26.30;65.00;;;;;;4999170;28;20204;-84
2023/08/21 02:47:58;;;;;;;5.32;4.85;;;26.30;65.00;;;;;;5016570;28;20195;-84
2023/08/21 02:50:26;;;;;;;4.95;4.55;;;26.30;65.00;;;;;;4998410;28;20342;-84
2023/08/21 02:52:54;;;;;;;5.45;5.00;;;26.30;65.00;;;;;;4998378;28;20716;-84
2023/08/21 02:55:21;;;;;;;4.93;4.40;;;26.30;65.00;;;;;;4998913;28;20211;-84
2023/08/21 02:57:48;;;;;;;4.78;4.38;;;26.30;65.00;;;;;;5016151;28;20188;-84
2023/08/21 03:00:16;;;;;;;4.88;4.47;;;26.30;65.00;;;;;;4997929;28;20231;-84
2023/08/21 03:02:43;;;;;;;5.20;4.70;;;26.30;65.00;;;;;;4998027;28;20200;-84
2023/08/21 03:05:10;;;;;;;4.97;4.57;;;26.30;65.00;;;;;;4997875;28;20659;-84
2023/08/21 03:07:38;;;;;;;6.22;5.10;;;26.30;64.90;;;;;;4997825;28;20593;-84
2023/08/21 03:10:06;;;;;;;4.95;4.45;;;26.20;64.70;;;;;;4997533;28;20246;-84
2023/08/21 03:12:33;;;;;;;5.22;4.72;;;26.30;64.70;;;;;;4997648;28;20200;-84
2023/08/21 03:15:00;;;;;;;5.00;4.60;;;26.30;64.70;;;;;;4996949;28;20204;-84
2023/08/21 03:17:27;;;;;;;5.60;5.20;;;26.20;64.60;;;;;;4998564;28;20223;-84
2023/08/21 03:19:54;;;;;;;5.30;4.90;;;26.30;64.70;;;;;;4997446;28;20535;-84
2023/08/21 03:22:23;;;;;;;5.38;4.88;;;26.30;64.60;;;;;;4997570;28;20196;-84
2023/08/21 03:24:51;;;;;;;5.15;4.75;;;26.30;64.50;;;;;;4997768;28;20200;-84
2023/08/21 03:27:19;;;;;;;4.93;4.53;;;26.30;64.40;;;;;;4997497;28;20207;-84
2023/08/21 03:29:48;;;;;;;5.68;5.18;;;26.40;64.30;;;;;;4997275;28;20262;-84
2023/08/21 03:32:16;;;;;;;5.20;4.80;;;26.40;64.20;;;;;;4997311;28;20218;-84
2023/08/21 03:34:43;;;;;;;5.53;5.03;;;26.40;64.00;;;;;;4998440;28;20204;-84
2023/08/21 03:37:10;;;;;;;5.30;4.90;;;26.40;63.90;;;;;;4997167;28;20204;-84
2023/08/21 03:39:38;;;;;;;5.35;4.88;;;26.50;63.90;;;;;;4997886;28;20239;-84
2023/08/21 03:42:08;;;;;;;4.90;4.50;;;26.50;63.80;;;;;;4997195;28;20220;-84
2023/08/21 03:44:36;;;;;;;5.28;4.80;;;26.50;63.80;;;;;;5011874;23;20409;-82
2023/08/21 03:47:03;;;;;;;5.40;5.00;;;26.50;63.70;;;;;;4983218;28;20195;-84
2023/08/21 03:49:34;;;;;;;5.53;5.03;;;26.50;63.70;;;;;;5014202;28;20683;-84
2023/08/21 03:52:01;;;;;;;5.30;4.90;;;26.50;63.60;;;;;;4981575;28;20564;-84
2023/08/21 03:54:28;;;;;;;4.82;4.53;;;26.50;63.50;;;;;;4994451;28;20251;-84
2023/08/21 03:56:56;;;;;;;5.43;5.03;;;26.50;63.40;;;;;;4994444;28;20197;-84
2023/08/21 03:59:27;;;;;;;5.63;5.13;;;26.50;63.40;;;;;;4994964;28;20213;-84
2023/08/21 04:01:54;;;;;;;5.32;4.80;;;26.60;63.40;;;;;;4994544;28;20231;-84
2023/08/21 04:04:22;;;;;;;5.70;5.00;;;26.60;63.40;;;;;;4994179;28;20243;-84
2023/08/21 04:06:49;;;;;;;5.82;4.82;;;26.60;63.40;;;;;;4994292;28;20271;-84
2023/08/21 04:09:17;;;;;;;5.00;4.60;;;26.60;63.40;;;;;;4979432;28;20287;-84
2023/08/21 04:11:43;;;;;;;5.53;5.00;;;26.50;63.30;;;;;;4994305;28;20267;-84
2023/08/21 04:14:10;;;;;;;5.55;4.88;;;26.50;63.30;;;;;;4995535;28;20711;-84
2023/08/21 04:16:39;;;;;;;5.15;4.75;;;26.50;63.40;;;;;;4994348;28;20199;-84
2023/08/21 04:19:06;;;;;;;5.55;5.05;;;26.50;63.40;;;;;;4995568;28;20204;-84
2023/08/21 04:21:33;;;;;;;5.47;4.97;;;26.50;63.50;;;;;;4994743;28;20220;-84
2023/08/21 04:24:00;;;;;;;5.63;5.10;;;26.50;63.50;;;;;;4994069;28;20595;-84
2023/08/21 04:26:28;;;;;;;4.93;4.53;;;26.50;63.50;;;;;;4994034;28;20197;-84
2023/08/21 04:28:55;;;;;;;5.53;5.00;;;26.50;63.60;;;;;;4994445;28;20205;-84
2023/08/21 04:31:23;;;;;;;5.63;5.15;;;26.50;63.70;;;;;;4995374;28;20217;-84
2023/08/21 04:33:51;;;;;;;5.68;5.18;;;26.40;63.60;;;;;;4994629;28;20235;-84
2023/08/21 04:36:19;;;;;;;5.82;4.93;;;26.40;63.60;;;;;;4994645;28;20205;-84
2023/08/21 04:38:49;;;;;;;4.95;4.55;;;26.40;63.70;;;;;;4994276;28;20228;-84
2023/08/21 04:41:16;;;;;;;5.47;5.07;;;26.40;63.70;;;;;;4962028;28;20212;-84
2023/08/21 04:43:46;;;;;;;5.60;5.00;;;26.40;63.70;;;;;;4994417;28;20200;-84
2023/08/21 04:46:13;;;;;;;5.25;4.85;;;26.50;63.80;;;;;;4977528;28;20200;-84
2023/08/21 04:48:43;;;;;;;5.38;4.88;;;26.40;63.70;;;;;;4977748;28;20568;-84
2023/08/21 04:51:11;;;;;;;5.18;4.78;;;26.40;63.80;;;;;;4993441;28;20597;-84
2023/08/21 04:53:38;;;;;;;5.45;5.00;;;26.40;63.80;;;;;;4993425;28;20645;-84
2023/08/21 04:56:12;;;;;;;5.30;4.90;;;26.40;63.80;;;;;;4978397;28;20743;-84
2023/08/21 04:58:39;;;;;;;5.30;4.80;;;26.40;63.80;;;;;;4993171;28;20288;-84
2023/08/21 05:01:08;;;;;;;5.38;4.88;;;26.40;63.80;;;;;;4993521;28;20693;-84
2023/08/21 05:03:39;;;;;;;5.25;4.75;;;26.40;63.80;;;;;;4993564;28;20224;-84
2023/08/21 05:06:06;;;;;;;5.47;5.05;;;26.40;63.80;;;;;;4993352;28;20568;-85
2023/08/21 05:08:36;;;;;;;5.32;4.82;;;26.40;63.80;;;;;;4993750;28;20284;-84
2023/08/21 05:11:05;;;;;;;5.20;4.80;;;26.40;63.80;;;;;;4993531;28;20283;-84
2023/08/21 05:13:34;;;;;;;5.25;4.82;;;26.40;63.80;;;;;;4993745;28;20553;-84
2023/08/21 05:16:02;;;;;;;5.18;4.78;;;26.40;63.60;;;;;;4994392;28;20759;-84
2023/08/21 05:18:34;;;;;;;5.47;4.97;;;26.40;63.50;;;;;;4995254;28;20243;-84
2023/08/21 05:21:02;;;;;;;5.32;4.80;;;26.40;63.30;;;;;;4978400;28;20208;-84
2023/08/21 05:23:29;;;;;;;5.22;4.78;;;26.50;63.20;;;;;;4978367;28;20197;-84
2023/08/21 05:26:03;;;;;;;5.25;4.85;;;26.50;63.10;;;;;;4995565;28;20193;-84
2023/08/21 05:28:30;;;;;;;5.18;4.53;;;26.50;63.10;;;;;;4994474;28;20263;-84
2023/08/21 05:30:58;;;;;;;5.30;4.90;;;26.60;63.00;;;;;;4993453;28;20220;-84
2023/08/21 05:33:25;;;;;;;5.20;4.80;;;26.60;62.60;;;;;;4993960;28;20569;-84
2023/08/21 05:35:53;;;;;;;5.05;4.65;;;26.70;62.30;;;;;;4993647;28;20189;-84
2023/08/21 05:38:20;;;;;;;4.97;4.50;;;26.80;62.00;;;;;;4995140;28;20196;-84
2023/08/21 05:40:48;;;;;;;5.07;4.68;;;26.90;61.90;;;;;;4999015;28;20608;-84
2023/08/21 05:43:18;;;;;;;5.28;4.85;;;26.90;61.50;;;;;;4981832;28;20248;-84
2023/08/21 05:45:46;;;;;;;5.07;4.50;;;27.00;61.30;;;;;;4997341;28;20208;-84
2023/08/21 05:48:14;;;;;;;5.20;4.70;;;27.10;60.80;;;;;;4997335;28;20327;-84
2023/08/21 05:50:41;;;;;;;5.47;4.90;;;27.20;60.40;;;;;;4998791;28;20683;-84
2023/08/21 05:53:08;;;;;;;5.57;4.55;;;27.40;60.00;;;;;;4997495;28;20211;-84
2023/08/21 05:55:36;;;;;;;5.25;4.85;;;27.40;59.70;;;;;;4998279;28;20197;-84
2023/08/21 05:58:04;;;;;;;4.57;4.18;;;27.60;59.50;;;;;;5008739;28;20215;-84
2023/08/21 06:00:34;;;;;;;5.35;4.93;;;27.70;59.20;;;;;;5020460;28;20248;-85
2023/08/21 06:03:03;;;;;;;5.18;4.68;;;27.80;59.00;;;;;;5020689;28;20236;-85
2023/08/21 06:05:46;;;;;;;5.10;4.70;;;27.90;58.80;;;;;;4997209;28;20212;-84
2023/08/21 06:08:14;;;;;;;4.78;4.38;;;28.00;58.60;;;;;;4996613;28;20201;-84
2023/08/21 06:10:41;;;;;;;5.30;4.80;;;28.10;58.40;;;;;;4996969;28;20228;-84
2023/08/21 06:13:09;;;;;;;5.10;4.68;;;28.20;58.20;;;;;;4997190;28;20200;-84
2023/08/21 06:15:38;;;;;;;4.35;4.05;;;28.30;58.00;;;;;;4996454;28;20640;-84
2023/08/21 06:18:06;;;;;;;4.95;4.47;;;28.30;57.80;;;;;;4979948;28;20727;-84
2023/08/21 06:20:33;;;;;;;4.97;4.57;;;28.40;57.60;;;;;;4996224;28;20209;-84
2023/08/21 06:23:00;;;;;;;4.75;4.38;;;28.50;57.40;;;;;;4996250;28;20193;-84
2023/08/21 06:25:27;;;;;;;4.78;4.40;;;28.60;57.30;;;;;;4996162;28;20205;-84
2023/08/21 06:27:54;;;;;;;5.30;4.90;;;28.60;57.10;;;;;;4996384;28;20225;-84
2023/08/21 06:30:21;;;;;;;5.15;4.65;;;28.70;57.00;;;;;;4996806;28;20328;-84
2023/08/21 06:32:50;;;;;;;5.13;4.57;;;28.80;56.90;;;;;;4997154;28;20361;-85
2023/08/21 06:35:17;;;;;;;5.18;4.75;;;28.80;56.50;;;;;;4997271;28;20304;-84
2023/08/21 06:37:45;;;;;;;5.40;4.90;;;28.90;56.50;;;;;;4997051;28;20193;-84
2023/08/21 06:40:13;;;;;;;5.22;4.72;;;29.00;56.40;;;;;;4996843;28;20588;-84
2023/08/21 06:42:39;;;;;;;5.13;4.50;;;29.00;56.20;;;;;;4996272;28;20299;-84
2023/08/21 06:45:07;;;;;;;5.28;4.80;;;29.10;56.10;;;;;;4996869;28;20201;-85
2023/08/21 06:47:35;;;;;;;4.38;4.07;;;29.10;56.00;;;;;;4996535;28;20200;-85
2023/08/21 06:50:03;;;;;;;5.28;4.78;;;29.20;55.90;;;;;;4995108;28;20201;-84
2023/08/21 06:52:30;;;;;;;4.32;4.03;;;29.20;55.70;;;;;;4996330;28;20220;-84
2023/08/21 06:54:58;;;;;;;4.70;4.30;;;29.30;55.60;;;;;;4981362;28;20205;-84
2023/08/21 06:57:24;;;;;;;5.10;4.70;;;29.30;55.50;;;;;;4996987;28;20201;-84
2023/08/21 06:59:52;;;;;;;4.80;4.40;;;29.40;55.50;;;;;;4997324;28;20192;-84
2023/08/21 07:02:18;;;;;;;5.10;4.70;;;29.40;55.30;;;;;;4998482;28;20227;-84
2023/08/21 07:04:46;;;;;;;4.70;4.30;;;29.50;55.30;;;;;;4995917;28;20197;-84
2023/08/21 07:07:14;;;;;;;4.88;4.47;;;29.60;55.20;;;;;;4996014;28;20205;-84
2023/08/21 07:09:42;;;;;;;4.80;4.50;;;29.60;55.10;;;;;;4995650;28;20225;-84
2023/08/21 07:12:09;;;;;;;4.45;4.15;;;29.60;55.00;;;;;;4995305;28;20220;-84
2023/08/21 07:14:36;;;;;;;4.95;4.63;;;29.70;54.90;;;;;;4995890;28;20196;-84
2023/08/21 07:17:03;;;;;;;4.72;4.32;;;29.80;54.90;;;;;;4995456;28;20200;-84
2023/08/21 07:19:30;;;;;;;4.95;4.55;;;29.80;54.70;;;;;;4996287;28;20193;-85
2023/08/21 07:21:57;;;;;;;4.47;4.18;;;29.80;54.60;;;;;;4995270;28;20251;-84
2023/08/21 07:24:25;;;;;;;5.00;4.30;;;29.90;54.50;;;;;;4995272;28;20196;-85
2023/08/21 07:26:53;;;;;;;4.93;4.43;;;29.90;54.50;;;;;;4995240;28;20197;-84
2023/08/21 07:29:19;;;;;;;4.90;4.15;;;29.90;54.30;;;;;;4994970;28;20200;-84
2023/08/21 07:31:46;;;;;;;4.70;4.30;;;30.00;54.20;;;;;;4994668;28;20233;-84
2023/08/21 07:34:13;;;;;;;4.60;4.30;;;30.00;54.00;;;;;;4994823;28;20204;-85
2023/08/21 07:36:41;;;;;;;4.65;4.20;;;30.10;53.90;;;;;;4995306;28;20259;-84
2023/08/21 07:39:08;;;;;;;4.53;4.22;;;30.20;53.80;;;;;;4994936;28;20204;-84
2023/08/21 07:41:37;;;;;;;4.55;4.25;;;30.20;53.70;;;;;;4994763;28;20209;-84
2023/08/21 07:44:05;;;;;;;4.50;4.13;;;30.20;53.60;;;;;;4994840;28;20197;-85
2023/08/21 07:46:32;;;;;;;4.10;3.80;;;30.30;53.50;;;;;;4995099;28;20192;-85
2023/08/21 07:48:59;;;;;;;4.82;4.43;;;30.30;53.40;;;;;;4994456;28;20197;-84
2023/08/21 07:51:27;;;;;;;4.50;4.20;;;30.30;53.20;;;;;;4978425;28;20221;-85
2023/08/21 07:53:54;;;;;;;4.72;4.32;;;30.40;53.10;;;;;;4995091;28;20604;-85
2023/08/21 07:56:21;;;;;;;4.70;4.15;;;30.40;53.00;;;;;;4996341;28;20578;-85
2023/08/21 07:58:49;;;;;;;4.55;4.25;;;30.50;53.10;;;;;;5003432;28;20193;-84
2023/08/21 08:01:16;;;;;;;4.05;3.75;;;30.50;53.00;;;;;;5000920;28;20252;-85
2023/08/21 08:03:44;;;;;;;4.80;4.40;;;30.60;53.00;;;;;;5001777;28;20196;-85
2023/08/21 08:06:10;;;;;;;4.35;4.05;;;30.60;52.80;;;;;;4997137;28;20208;-85
2023/08/21 08:08:37;;;;;;;4.75;4.38;;;30.60;52.70;;;;;;4996641;28;20200;-85
2023/08/21 08:11:05;;;;;;;4.22;3.92;;;30.60;52.60;;;;;;4997888;28;20292;-85
2023/08/21 08:13:33;;;;;;;4.20;3.90;;;30.70;52.50;;;;;;4997991;28;20197;-85
2023/08/21 08:16:02;;;;;;;4.13;3.83;;;30.70;52.40;;;;;;4996936;28;20209;-85
2023/08/21 08:18:29;;;;;;;4.68;4.28;;;30.70;52.40;;;;;;4997130;28;20215;-85
2023/08/21 08:20:56;;;;;;;4.40;4.10;;;30.80;52.30;;;;;;4994639;28;20217;-85
2023/08/21 08:23:23;;;;;;;4.20;3.90;;;30.80;52.20;;;;;;4995391;28;20201;-85
2023/08/21 08:25:51;;;;;;;4.40;4.10;;;30.90;52.10;;;;;;4994555;28;20200;-85
2023/08/21 08:28:18;;;;;;;4.40;4.10;;;30.90;52.00;;;;;;4994516;28;20707;-85
2023/08/21 08:30:45;;;;;;;4.30;4.00;;;30.90;52.00;;;;;;4994198;28;20275;-85
2023/08/21 08:33:14;;;;;;;4.60;4.20;;;30.90;51.90;;;;;;4994545;28;20197;-85
2023/08/21 08:35:41;;;;;;;4.28;3.88;;;30.90;51.80;;;;;;4996817;28;20200;-85
2023/08/21 08:38:08;;;;;;;4.25;3.92;;;31.00;51.80;;;;;;4998092;28;20679;-84
2023/08/21 08:40:35;;;;;;;4.22;3.92;;;31.00;51.70;;;;;;4997074;28;20221;-85
2023/08/21 08:43:05;;;;;;;4.30;3.90;;;31.00;51.70;;;;;;4997073;28;20280;-85
2023/08/21 08:45:33;;;;;;;5.03;4.63;;;31.00;51.70;;;;;;4995803;28;20277;-85
2023/08/21 08:48:01;;;;;;;4.53;3.90;;;31.00;51.70;;;;;;4996664;28;20208;-84
2023/08/21 08:50:30;;;;;;;4.30;4.00;;;31.00;51.80;;;;;;4996963;28;20259;-85
2023/08/21 08:52:58;;;;;;;4.43;4.13;;;31.00;51.90;;;;;;4996008;28;20240;-85
2023/08/21 08:55:25;;;;;;;4.18;3.88;;;31.00;51.80;;;;;;4996302;28;20220;-85
2023/08/21 08:57:53;;;;;;;4.07;3.78;;;31.00;51.80;;;;;;4996002;28;20201;-85
2023/08/21 09:00:20;;;;;;;4.40;4.00;;;31.10;51.80;;;;;;4996895;28;20247;-85
2023/08/21 09:02:47;;;;;;;4.05;3.75;;;31.10;51.80;;;;;;4996973;28;20197;-85
2023/08/21 09:05:14;;;;;;;4.03;3.72;;;31.10;51.80;;;;;;4996592;28;20247;-85
2023/08/21 09:07:44;;;;;;;3.83;3.58;;;31.10;51.80;;;;;;4996161;28;20254;-85
2023/08/21 09:10:15;;;;;;;4.40;4.10;;;31.10;51.80;;;;;;4996059;28;20201;-85
2023/08/21 09:12:45;;;;;;;4.30;4.00;;;31.10;51.80;;;;;;4993583;28;20227;-85
2023/08/21 09:15:13;;;;;;;4.40;4.10;;;31.10;51.80;;;;;;4997571;28;20628;-85
2023/08/21 09:17:39;;;;;;;4.25;3.95;;;31.10;51.70;;;;;;4998875;28;20770;-85
2023/08/21 09:20:08;;;;;;;4.10;3.80;;;31.20;51.70;;;;;;4982781;28;20208;-85
2023/08/21 09:22:35;;;;;;;4.38;4.00;;;31.20;51.70;;;;;;4999301;28;20695;-85
2023/08/21 09:25:06;;;;;;;4.10;3.80;;;31.20;51.70;;;;;;5000094;28;20537;-84
2023/08/21 09:27:34;;;;;;;4.80;4.30;;;31.20;51.70;;;;;;4998348;28;20201;-85
2023/08/21 09:30:02;;;;;;;4.13;3.83;;;31.20;51.70;;;;;;4999230;28;20235;-85
2023/08/21 09:32:29;;;;;;;3.90;3.70;;;31.20;51.60;;;;;;4998683;28;20557;-85
2023/08/21 09:34:57;;;;;;;3.92;3.63;;;31.20;51.60;;;;;;4999378;28;20220;-85
2023/08/21 09:37:29;;;;;;;4.25;3.95;;;31.20;51.50;;;;;;4984139;28;20223;-85
2023/08/21 09:39:55;;;;;;;4.70;3.95;;;31.30;51.60;;;;;;4999127;28;20284;-85
2023/08/21 09:42:24;;;;;;;4.00;3.60;;;31.30;51.60;;;;;;4999070;28;20243;-85
2023/08/21 09:44:51;;;;;;;4.70;4.30;;;31.20;51.50;;;;;;5051367;23;20224;-83
2023/08/21 09:47:17;;;;;;;4.07;3.78;;;31.30;51.60;;;;;;5009498;28;20200;-83
2023/08/21 09:49:44;;;;;;;4.00;3.70;;;31.20;51.50;;;;;;5009226;28;20280;-83
2023/08/21 09:52:13;;;;;;;3.83;3.53;;;31.20;51.50;;;;;;5006936;28;20299;-83
2023/08/21 09:54:40;;;;;;;4.15;3.85;;;31.20;51.50;;;;;;5007638;28;20359;-84
2023/08/21 09:57:08;;;;;;;4.03;3.72;;;31.30;51.50;;;;;;5004627;28;20196;-84
2023/08/21 09:59:38;;;;;;;4.30;4.00;;;31.20;51.50;;;;;;5003340;28;20216;-84
2023/08/21 10:02:05;;;;;;;4.13;3.83;;;31.30;51.60;;;;;;5003045;28;20215;-85
2023/08/21 10:04:33;;;;;;;4.28;3.97;;;31.30;51.60;;;;;;5002663;28;20203;-85
2023/08/21 10:07:00;;;;;;;4.15;3.85;;;31.30;51.60;;;;;;5001342;28;20196;-84
2023/08/21 10:09:27;;;;;;;4.25;3.95;;;31.20;51.60;;;;;;5000683;28;20569;-84
2023/08/21 10:11:54;;;;;;;3.92;3.63;;;31.20;51.60;;;;;;5001448;28;20232;-84
2023/08/21 10:14:22;;;;;;;3.97;3.67;;;31.20;51.60;;;;;;5001463;28;20256;-84
2023/08/21 10:16:52;;;;;;;4.07;3.78;;;31.20;51.70;;;;;;5005942;28;20632;-84
2023/08/21 10:19:19;;;;;;;4.18;3.88;;;31.20;51.80;;;;;;5007203;28;20746;-83
2023/08/21 10:21:47;;;;;;;4.20;3.90;;;31.10;51.80;;;;;;5007805;28;20306;-83
2023/08/21 10:24:15;;;;;;;4.18;3.75;;;31.10;51.80;;;;;;5007144;28;20643;-84
2023/08/21 10:26:43;;;;;;;4.28;3.97;;;31.10;51.90;;;;;;5001191;28;20228;-84
2023/08/21 10:29:09;;;;;;;3.90;3.60;;;31.10;52.00;;;;;;4999915;28;20204;-84
2023/08/21 10:31:38;;;;;;;4.05;3.75;;;31.10;52.00;;;;;;4999543;28;20564;-84
2023/08/21 10:34:10;;;;;;;4.13;3.83;;;31.10;52.10;;;;;;4999197;28;20228;-84
2023/08/21 10:37:07;;;;;;;4.10;3.80;;;31.00;52.10;;;;;;4999924;28;20291;-84
2023/08/21 10:39:37;;;;;;;3.80;3.55;;;31.00;52.10;;;;;;5000326;28;20632;-84
2023/08/21 10:42:06;;;;;;;3.63;3.33;;;31.00;52.20;;;;;;5001882;28;20223;-84
2023/08/21 10:44:37;;;;;;;4.20;3.90;;;31.00;52.30;;;;;;5001344;28;20204;-84
2023/08/21 10:47:17;;;;;;;4.07;3.78;;;30.90;52.30;;;;;;5002371;28;20199;-84
2023/08/21 10:49:46;;;;;;;3.88;3.58;;;31.00;52.40;;;;;;5001966;28;20242;-84
2023/08/21 10:52:14;;;;;;;4.22;3.88;;;30.90;52.40;;;;;;4986866;28;20247;-84
2023/08/21 10:54:47;;;;;;;4.20;3.90;;;30.90;52.60;;;;;;5003440;28;20204;-84
2023/08/21 10:57:14;;;;;;;4.15;3.80;;;30.80;52.60;;;;;;4988116;28;20295;-84
2023/08/21 10:59:51;;;;;;;3.92;3.63;;;30.80;52.70;;;;;;5003547;28;20199;-84
2023/08/21 11:02:18;;;;;;;4.32;4.00;;;30.70;52.80;;;;;;5004124;28;20758;-84
2023/08/21 11:04:47;;;;;;;4.18;3.88;;;30.70;52.90;;;;;;5003836;28;20215;-84
2023/08/21 11:07:15;;;;;;;3.70;3.50;;;30.70;53.10;;;;;;5003539;28;20196;-84
2023/08/21 11:09:42;;;;;;;4.00;3.67;;;30.60;53.20;;;;;;4986522;28;20196;-84
2023/08/21 11:12:10;;;;;;;4.00;3.70;;;30.60;53.20;;;;;;5002185;28;20222;-83
2023/08/21 11:14:38;;;;;;;4.05;3.75;;;30.60;53.20;;;;;;5003601;28;20200;-84
2023/08/21 11:17:05;;;;;;;3.67;3.47;;;30.60;53.20;;;;;;5003667;28;20296;-84
2023/08/21 11:19:32;;;;;;;4.20;3.90;;;30.60;53.30;;;;;;5002757;28;20200;-84
2023/08/21 11:22:03;;;;;;;3.90;3.60;;;30.60;53.40;;;;;;5003346;28;20204;-84
2023/08/21 11:24:32;;;;;;;4.00;3.70;;;30.50;53.50;;;;;;5003140;28;20188;-84
2023/08/21 11:26:59;;;;;;;3.95;3.65;;;30.50;53.50;;;;;;5003103;28;20203;-84
2023/08/21 11:29:26;;;;;;;3.83;3.53;;;30.50;53.50;;;;;;4987048;28;20222;-84
2023/08/21 11:31:53;;;;;;;4.22;3.92;;;30.50;53.60;;;;;;5003331;28;20235;-84
2023/08/21 11:34:20;;;;;;;4.50;4.20;;;30.50;53.70;;;;;;4998590;28;20250;-84
2023/08/21 11:36:47;;;;;;;3.83;3.53;;;30.50;53.70;;;;;;4997685;28;20196;-84
2023/08/21 11:39:15;;;;;;;3.60;3.40;;;30.50;53.70;;;;;;4998804;28;20208;-84
2023/08/21 11:41:55;;;;;;;3.90;3.60;;;30.40;53.70;;;;;;4998875;28;20699;-84
2023/08/21 11:44:23;;;;;;;3.85;3.55;;;30.40;53.80;;;;;;4970379;28;20199;-84
2023/08/21 11:46:52;;;;;;;3.95;3.65;;;30.50;53.80;;;;;;5006018;28;20211;-84
2023/08/21 11:49:22;;;;;;;3.92;3.63;;;30.40;53.80;;;;;;5002903;28;20248;-84
2023/08/21 11:51:49;;;;;;;3.80;3.60;;;30.40;53.90;;;;;;5006268;28;20316;-84
2023/08/21 11:54:19;;;;;;;4.18;3.88;;;30.40;54.00;;;;;;4990061;28;20253;-84
2023/08/21 11:56:47;;;;;;;4.10;3.80;;;30.30;54.00;;;;;;5022246;28;20173;-82
2023/08/21 11:59:22;;;;;;;3.70;3.50;;;30.30;53.90;;;;;;5038995;28;20164;-84
2023/08/21 12:01:51;;;;;;;4.00;3.70;;;30.30;54.30;;;;;;5021709;28;20203;-84
2023/08/21 12:04:18;;;;;;;4.15;3.75;;;30.30;54.50;;;;;;5021785;28;20203;-84
2023/08/21 12:06:45;;;;;;;4.18;3.88;;;30.30;54.50;;;;;;5025467;28;20243;-84
2023/08/21 12:09:12;;;;;;;3.90;3.60;;;30.30;54.40;;;;;;4998293;28;20226;-84
2023/08/21 12:11:41;;;;;;;3.97;3.67;;;30.30;54.40;;;;;;4998198;28;20220;-84
2023/08/21 12:14:08;;;;;;;3.60;3.40;;;30.30;54.50;;;;;;4998025;28;20219;-84
2023/08/21 12:16:35;;;;;;;3.70;3.50;;;30.30;54.60;;;;;;4998060;28;20213;-84
2023/08/21 12:19:03;;;;;;;3.67;3.47;;;30.30;54.50;;;;;;4997711;28;20200;-84
2023/08/21 12:21:30;;;;;;;3.60;3.40;;;30.30;54.60;;;;;;4997558;28;20208;-84
2023/08/21 12:23:57;;;;;;;4.07;3.78;;;30.30;54.60;;;;;;4997475;28;20291;-84
2023/08/21 12:26:24;;;;;;;3.72;3.45;;;30.30;54.60;;;;;;4997926;28;20196;-84
2023/08/21 12:28:53;;;;;;;4.20;3.90;;;30.30;54.70;;;;;;4981456;28;20192;-84
2023/08/21 12:31:20;;;;;;;3.92;3.63;;;30.30;54.80;;;;;;4997788;28;20239;-84
2023/08/21 12:33:48;;;;;;;3.88;3.58;;;30.30;54.80;;;;;;4997232;28;20224;-84
2023/08/21 12:36:15;;;;;;;3.67;3.47;;;30.20;54.80;;;;;;4997564;28;20195;-84
2023/08/21 12:38:43;;;;;;;3.95;3.65;;;30.20;54.90;;;;;;4998167;28;20291;-84
2023/08/21 12:41:10;;;;;;;3.67;3.38;;;30.20;54.90;;;;;;4997383;28;20223;-84
2023/08/21 12:43:37;;;;;;;3.92;3.63;;;30.20;55.00;;;;;;4996888;28;20196;-84
2023/08/21 12:46:06;;;;;;;3.53;3.22;;;30.20;55.00;;;;;;4996825;28;20247;-84
2023/08/21 12:48:33;;;;;;;3.75;3.53;;;30.20;55.10;;;;;;4998433;28;20303;-84
2023/08/21 12:51:00;;;;;;;3.95;3.65;;;30.20;55.10;;;;;;5001250;28;20215;-84